Huvudsida
METAR-TAF:

METAR-TAF

Flygplatser :

Hemavan, Sverige

Hemavan Tärnaby Airport

latitud: 65-48-22N, longitud: 015-04-58E, höjd: 458 m

Aktuellt väderrapport

Denna rapport gjordes för 18 minuter sedan, klockan 03:20 UTC
Vind 2 kt varierande vindriktning
Temperatur -19°C
Fuktighet 84%
Tryck 998 hPa
Sikt 10 km eller mer
kornsnö

METAR: ESUT 190320Z AUTO VRB02KT 9999 SG BKN023/// M19/M21 Q0998

Tid: 04:38 (03:38 UTC)


TAF: saknas

Aktuella väderrapporter och prognoser från 4000 flygplatser (METAR- och TAF-rapporter).

De tillgängliga stationerna syns som gula och röda prickar på kartan.

För musen över prickarna för att se namnen på stationerna.

Klicka sedan för att få väderrapporter och prognoser.

För att ändra kartan: Klicka på de gröna knapparna med ett svart kors på för att zooma in; den gröna knappen med ett streck på för att zooma ut; eller på de gröna pilarna för angränsande kartor.


METAR-TAF: